SBRJSBBH

Guest
Details From SBRJ - Santos-Dumont
To SBBH - Pampulha
Flight Number -
Tags decoded
Created
Modified
Stats Distance 293 nm / 543 km
Max Altitude 0 ft / 0 m
Waypoints 5
Social Downloads 1
Likes 0
Share VATSIM

Download

Looking for another format? Having issues loading an existing format? Contact us
Advertisement - Login to hide

Notes

Requested: SBRJ ADA UL340 VUPIP UN857 MIA UZ1 PCX W21 DEJAN UZ3 SILUB SBBH Unmatched points: UL340 VUPIP UN857 UZ1 W21 UZ3 SILUB

Route

SBRJ ADA PCX DEJAN SBBH

ID Type Via Altitude Latitude Longitude Leg Dist Tot Dist Heading (true) Name
O SBRJ APT - 0 ft / 0 m -22.91046˚ -43.16313˚ - 0 nm - Santos-Dumont
ADA NDB - 0 ft / 0 m -22.82296˚ -42.09649˚ 59 nm 59 nm 85° / 85° ALDEIA NDB
PCX VOR - 0 ft / 0 m -22.71533˚ -42.85750˚ 42 nm 101 nm 279° / 279° PORTO VOR-DME
DEJAN FIX - 0 ft / 0 m -20.76967˚ -44.08750˚ 135 nm 237 nm 329° / 330° -
O SBBH APT - 0 ft / 0 m -19.85118˚ -43.95063˚ 55 nm 293 nm 8° / 8° Pampulha

Altitude Profile

Advertisement - Login to hide

Weather


0- 5 10 15 20 25 30 35+ Temperature / ° C

Clouds and Precipitation
Forecast for 2018-05-22 18:00 UTC. Updated 5 hours ago

Ground ~20,000 ft ~40,000 ft Winds

SBRJ

Details ICAO SBRJ (SDU)
Name Santos-Dumont
Region Brazil
Timezone Unknown (UTC+0.0)
Stats Elevation 11 ft / 3 m (AMSL)
Location -22.910460° -43.163133°
Runways 2
Magnetic Variation 22.825° W

METAR

SBRJ 222100Z 19007KT CAVOK 21/18 Q1016

Decode

TAF

TAF SBRJ 221500Z 2218/2306 17010KT CAVOK TX26/2218Z TN18/2306Z BECMG 2301/2303 34005KT FEW015 RMK PHD

Decode

Departure Runways

ID Width Length Bearing (true) Bearing (mag) Surface Threshold Offset Overrun Length
02L 98 ft / 30 m 4,154 ft / 1,266 m 358.02° 20.84° Asphalt 0 ft / 0 m 80 ft / 24 m
02R 138 ft / 42 m 4,361 ft / 1,329 m 358.01° 20.83° Asphalt 0 ft / 0 m 80 ft / 24 m
20L 138 ft / 42 m 4,361 ft / 1,329 m 178.01° 200.83° Asphalt 0 ft / 0 m 80 ft / 24 m
20R 98 ft / 30 m 4,154 ft / 1,266 m 178.02° 200.84° Asphalt 0 ft / 0 m 95 ft / 29 m

SBBH

Details ICAO SBBH (PLU)
Name Pampulha
Region Brazil
Timezone America/Sao_Paulo (UTC-3.0)
Stats Elevation 2,589 ft / 789 m (AMSL)
Location -19.851179° -43.950626°
Runways 1
Magnetic Variation 22.838° W

METAR

SBBH 222100Z 00000KT CAVOK 18/12 Q1020

Decode

TAF

Not found

Destination Runways

ID Width Length Bearing (true) Bearing (mag) Surface Threshold Offset Overrun Length
13 148 ft / 45 m 8,214 ft / 2,504 m 110.63° 133.47° Asphalt 0 ft / 0 m 200 ft / 61 m
31 148 ft / 45 m 8,214 ft / 2,504 m 290.62° 313.46° Asphalt 0 ft / 0 m 200 ft / 61 m

Popular Alternatives